Etusivu
METAR-TAF:

METAR-TAF

Lentoasemat :

Dübendorf, Sveitsi

Leveyspiiri: 47-23-55N, Pituuspiiri: 8-38-53E, korkeus merenpinnasta: 448 m

Tämänhetkinen sää

Tämä raportti tehtiin 30 minuuttia sitten, kello 05.20 UTC
Tuuli 2 kn eri suunnista
Lämpötila -1°C
Kosteus 69%
Ilmanpaine 1034 hPa
Näkyvyys 10 km tai enemmän

METAR: LSMD 240520Z AUTO VRB02KT 9999NDV NCD M01/M06 Q1034 RMK

Aika: 06:50 (05:50 UTC)


TAF: puuttuu

Säähavainnot ja -ennusteet yli 4000 lentoasemalta (METAR- ja TAF-raportit).

Käytössä olevat sääasemat on merkitty karttaan keltaisilla ja punaisilla pisteillä.

Aseta hiiri pisteen päälle nähdäksesi sääaseman nimen.

Klikkaa sitten nähdäksesi säähavainnot ja -ennusteet.

Kartan vaihtaminen: klikkaa mustalla rastilla varustettuja vihreitä pisteitä, niin voit zoomata sisään; viivalla varustettua vihreää pistettä, niin voit zoomata ulos tai vihreitä nuolia, niin pääset viereisille kartoille.


METAR-TAF: